createdAt,value
2019-04-23T00:01:25.460Z,10.30
2019-04-23T00:03:40.333Z,10.30
2019-04-23T00:06:18.693Z,10.20
2019-04-23T00:08:48.764Z,10.20
2019-04-23T00:11:22.119Z,10.20
2019-04-23T00:13:49.832Z,10.20
2019-04-23T00:16:23.724Z,10.10
2019-04-23T00:18:49.510Z,10.10
2019-04-23T00:21:42.516Z,10.00
2019-04-23T00:24:52.660Z,9.90
2019-04-23T00:27:12.455Z,9.90
2019-04-23T00:29:38.568Z,10.00
2019-04-23T00:32:08.456Z,10.00
2019-04-23T00:34:42.612Z,9.80
2019-04-23T00:37:12.961Z,9.70
2019-04-23T00:39:42.489Z,9.80
2019-04-23T00:42:17.320Z,9.90
2019-04-23T00:44:46.279Z,9.80
2019-04-23T00:47:14.265Z,9.80
2019-04-23T00:49:51.679Z,9.80
2019-04-23T00:54:51.457Z,9.60
2019-04-23T00:57:27.178Z,9.60
2019-04-23T00:59:57.720Z,9.60
2019-04-23T01:02:23.693Z,9.70
2019-04-23T01:04:56.431Z,9.60
2019-04-23T01:07:29.870Z,9.50
2019-04-23T01:10:02.774Z,9.50
2019-04-23T01:12:31.244Z,9.60
2019-04-23T01:15:04.698Z,9.60
2019-04-23T01:17:48.667Z,9.70
2019-04-23T01:20:03.643Z,9.80
2019-04-23T01:22:19.319Z,9.70
2019-04-23T01:25:07.270Z,9.70
2019-04-23T01:27:59.097Z,9.70
2019-04-23T01:30:19.713Z,9.60
2019-04-23T01:32:54.817Z,9.60
2019-04-23T01:35:24.243Z,9.70
2019-04-23T01:37:53.078Z,9.70
2019-04-23T01:40:35.162Z,9.60
2019-04-23T01:43:04.216Z,9.70
2019-04-23T01:45:44.397Z,9.70
2019-04-23T01:47:59.992Z,9.80
2019-04-23T01:50:43.415Z,9.70
2019-04-23T01:53:16.391Z,9.70
2019-04-23T01:55:44.069Z,9.70
2019-04-23T01:58:27.585Z,9.60
2019-04-23T02:03:18.475Z,9.20
2019-04-23T02:05:51.809Z,9.20
2019-04-23T02:08:14.132Z,9.10
2019-04-23T02:13:22.364Z,9.20
2019-04-23T02:15:53.420Z,9.00
2019-04-23T02:18:26.523Z,9.00
2019-04-23T02:21:07.820Z,9.00
2019-04-23T02:26:10.803Z,9.20
2019-04-23T02:28:49.538Z,9.20
2019-04-23T02:31:43.747Z,9.20
2019-04-23T02:34:12.137Z,9.20
2019-04-23T02:36:11.249Z,9.10
2019-04-23T02:41:27.614Z,9.10
2019-04-23T02:44:05.055Z,9.00
2019-04-23T02:46:18.079Z,8.90
2019-04-23T02:49:11.993Z,8.90
2019-04-23T02:56:37.646Z,8.90
2019-04-23T03:01:58.361Z,8.60
2019-04-23T03:04:19.762Z,8.50
2019-04-23T03:06:46.314Z,8.50
2019-04-23T03:09:12.754Z,8.40
2019-04-23T03:12:00.585Z,8.50
2019-04-23T03:16:57.881Z,8.50
2019-04-23T03:19:32.406Z,8.40
2019-04-23T03:21:59.764Z,8.40
2019-04-23T03:24:55.119Z,8.50
2019-04-23T03:29:49.074Z,8.50
2019-04-23T03:32:52.019Z,8.50
2019-04-23T03:37:23.348Z,8.60
2019-04-23T03:39:56.878Z,8.70
2019-04-23T03:42:17.814Z,8.70
2019-04-23T03:44:58.778Z,8.70
2019-04-23T03:47:24.202Z,8.70
2019-04-23T03:55:06.070Z,8.70
2019-04-23T04:00:03.864Z,8.80
2019-04-23T04:02:42.120Z,8.70
2019-04-23T04:05:01.011Z,8.70
2019-04-23T04:10:05.033Z,8.80
2019-04-23T04:12:35.421Z,8.90
2019-04-23T04:15:18.448Z,8.80
2019-04-23T04:17:44.730Z,8.90
2019-04-23T04:20:17.819Z,8.90
2019-04-23T04:25:14.542Z,9.00
2019-04-23T04:27:54.596Z,9.00
2019-04-23T04:30:20.842Z,9.10
2019-04-23T04:32:58.711Z,9.30
2019-04-23T04:40:38.039Z,9.60
2019-04-23T04:50:26.370Z,9.40
2019-04-23T04:53:23.262Z,9.40
2019-04-23T04:55:36.585Z,9.50
2019-04-23T04:57:58.143Z,9.60
2019-04-23T05:03:19.486Z,9.70
2019-04-23T05:08:07.235Z,9.80
2019-04-23T05:10:51.981Z,9.80
2019-04-23T05:13:37.376Z,9.90
2019-04-23T05:15:45.116Z,10.00
2019-04-23T05:18:46.737Z,10.00
2019-04-23T05:21:05.686Z,10.10
2019-04-23T05:26:21.074Z,10.10
2019-04-23T05:31:23.282Z,10.20
2019-04-23T05:33:57.164Z,10.30
2019-04-23T05:44:05.210Z,10.50
2019-04-23T05:46:33.055Z,10.60
2019-04-23T05:48:59.580Z,10.60
2019-04-23T05:51:38.789Z,10.70
2019-04-23T05:56:32.140Z,10.70
2019-04-23T06:07:09.687Z,11.00
2019-04-23T06:09:14.353Z,11.10
2019-04-23T06:16:49.914Z,11.10
2019-04-23T06:26:56.454Z,11.50
2019-04-23T06:29:25.591Z,11.60
2019-04-23T06:31:55.402Z,11.60
2019-04-23T06:36:57.206Z,11.80
2019-04-23T06:39:28.589Z,11.80
2019-04-23T06:42:00.359Z,11.90
2019-04-23T06:44:32.377Z,11.90
2019-04-23T06:47:03.192Z,11.90
2019-04-23T06:49:37.707Z,11.90
2019-04-23T06:52:14.757Z,12.00
2019-04-23T06:54:44.100Z,12.10
2019-04-23T06:57:14.899Z,12.20
2019-04-23T06:59:41.378Z,12.20
2019-04-23T07:02:22.214Z,12.40
2019-04-23T07:04:50.104Z,12.50
2019-04-23T07:07:38.057Z,12.60
2019-04-23T07:09:47.122Z,12.70
2019-04-23T07:12:25.543Z,12.80
2019-04-23T07:17:13.493Z,13.00
2019-04-23T07:19:48.345Z,12.90
2019-04-23T07:24:52.801Z,13.00
2019-04-23T07:27:24.554Z,13.10
2019-04-23T07:30:03.561Z,13.10
2019-04-23T07:32:31.256Z,13.10
2019-04-23T07:35:11.673Z,13.20
2019-04-23T07:37:54.813Z,13.30
2019-04-23T07:42:51.179Z,13.40
2019-04-23T07:58:22.217Z,13.40
2019-04-23T08:00:48.767Z,13.30
2019-04-23T08:05:42.537Z,13.40
2019-04-23T08:08:18.321Z,13.50
2019-04-23T08:13:53.543Z,13.40
2019-04-23T08:16:23.296Z,13.40
2019-04-23T08:18:52.701Z,13.50
2019-04-23T08:21:14.503Z,13.60
2019-04-23T08:24:01.876Z,13.70
2019-04-23T08:26:42.531Z,13.70
2019-04-23T08:29:14.942Z,13.60
2019-04-23T08:34:23.900Z,13.60
2019-04-23T08:36:48.580Z,13.60
2019-04-23T08:39:18.151Z,13.50
2019-04-23T08:42:12.550Z,13.40
2019-04-23T08:44:31.398Z,13.20
2019-04-23T08:47:10.355Z,13.20
2019-04-23T08:52:11.694Z,13.00
2019-04-23T08:57:14.552Z,12.90
2019-04-23T09:04:53.793Z,12.50
2019-04-23T09:07:20.550Z,12.30
2019-04-23T09:09:56.717Z,12.40
2019-04-23T09:12:23.706Z,12.30
2019-04-23T09:15:00.838Z,12.40
2019-04-23T09:17:27.387Z,12.40
2019-04-23T09:20:11.875Z,12.40
2019-04-23T09:25:05.603Z,12.40
2019-04-23T09:27:38.058Z,12.30
2019-04-23T09:37:48.916Z,12.30
2019-04-23T09:40:28.164Z,12.30
2019-04-23T09:46:08.505Z,12.20
2019-04-23T09:48:29.918Z,12.10
2019-04-23T09:51:02.512Z,12.00
2019-04-23T09:55:59.801Z,11.90
2019-04-23T09:58:28.865Z,11.90
2019-04-23T10:01:25.777Z,11.90
2019-04-23T10:03:46.160Z,11.90
2019-04-23T10:06:12.355Z,11.80
2019-04-23T10:08:43.058Z,11.80
2019-04-23T10:11:09.431Z,11.80
2019-04-23T10:13:40.662Z,11.80
2019-04-23T10:16:15.210Z,11.90
2019-04-23T10:18:41.943Z,11.80
2019-04-23T10:21:13.044Z,11.80
2019-04-23T10:23:43.350Z,11.80
2019-04-23T10:26:14.313Z,11.70
2019-04-23T10:28:47.544Z,11.70
2019-04-23T10:31:18.728Z,11.70
2019-04-23T10:33:48.421Z,11.80
2019-04-23T10:36:21.942Z,11.90
2019-04-23T10:38:59.481Z,11.80
2019-04-23T10:41:22.510Z,11.90
2019-04-23T10:43:56.599Z,12.00
2019-04-23T10:46:47.177Z,12.00
2019-04-23T10:49:52.202Z,12.00
2019-04-23T10:52:19.103Z,12.00
2019-04-23T10:54:40.894Z,12.00
2019-04-23T10:57:04.025Z,12.00
2019-04-23T11:07:29.850Z,11.90
2019-04-23T11:15:28.872Z,11.90
2019-04-23T11:17:47.966Z,11.90
2019-04-23T11:20:25.466Z,11.80
2019-04-23T11:22:48.281Z,11.80
2019-04-23T11:33:04.972Z,11.70
2019-04-23T11:40:29.929Z,11.70
2019-04-23T11:45:50.292Z,11.70
2019-04-23T11:48:36.564Z,11.70
2019-04-23T11:51:17.528Z,11.70
2019-04-23T11:53:10.071Z,11.70
2019-04-23T11:55:44.829Z,11.70
2019-04-23T11:58:20.279Z,11.70
2019-04-23T12:01:02.246Z,11.70
2019-04-23T12:03:45.418Z,11.70
2019-04-23T12:06:23.708Z,11.60
2019-04-23T12:09:07.683Z,11.60
2019-04-23T12:22:16.616Z,11.60
2019-04-23T12:25:02.516Z,11.60
2019-04-23T12:27:25.637Z,11.60
2019-04-23T12:29:46.219Z,11.60
2019-04-23T12:37:40.710Z,11.70
2019-04-23T12:40:15.542Z,11.70
2019-04-23T12:47:50.467Z,11.70
2019-04-23T12:50:38.792Z,11.80
2019-04-23T12:52:47.475Z,11.80
2019-04-23T12:57:46.946Z,11.80
2019-04-23T13:00:23.119Z,12.00
2019-04-23T13:03:02.873Z,12.10
2019-04-23T13:05:31.308Z,12.10
2019-04-23T13:07:52.183Z,12.10
2019-04-23T13:10:30.257Z,12.10
2019-04-23T13:13:01.539Z,12.10
2019-04-23T13:15:40.695Z,12.00
2019-04-23T13:20:32.389Z,11.90
2019-04-23T13:23:15.243Z,12.00
2019-04-23T13:25:53.903Z,11.80
2019-04-23T13:28:21.433Z,11.80
2019-04-23T13:30:54.263Z,11.80
2019-04-23T13:36:03.360Z,11.80
2019-04-23T13:38:35.025Z,11.80
2019-04-23T13:41:04.636Z,11.80
2019-04-23T13:43:37.978Z,11.90
2019-04-23T13:46:09.928Z,12.00
2019-04-23T13:48:24.894Z,11.90
2019-04-23T13:51:11.001Z,11.90
2019-04-23T13:56:09.156Z,11.80
2019-04-23T13:58:54.915Z,11.80
2019-04-23T14:08:53.664Z,11.80
2019-04-23T14:11:23.717Z,11.80
2019-04-23T14:21:25.279Z,11.70
2019-04-23T14:26:29.403Z,11.70
2019-04-23T14:28:51.226Z,11.70
2019-04-23T14:31:21.899Z,11.70
2019-04-23T14:34:05.041Z,11.70
2019-04-23T14:44:10.728Z,11.50
2019-04-23T14:49:10.951Z,11.60
2019-04-23T14:54:34.724Z,11.60
2019-04-23T14:56:58.992Z,11.60
2019-04-23T14:59:16.340Z,11.60
2019-04-23T15:01:58.261Z,11.70
2019-04-23T15:04:31.735Z,11.70
2019-04-23T15:09:34.080Z,11.70
2019-04-23T15:12:09.982Z,11.70
2019-04-23T15:17:05.799Z,11.70
2019-04-23T15:19:40.406Z,11.70
2019-04-23T15:24:49.697Z,11.70
2019-04-23T15:29:33.557Z,11.80
2019-04-23T15:32:18.778Z,11.80
2019-04-23T15:34:48.667Z,11.80
2019-04-23T15:37:34.529Z,11.70
2019-04-23T15:39:56.813Z,11.60
2019-04-23T15:44:55.219Z,11.70
2019-04-23T15:47:32.560Z,11.70
2019-04-23T15:49:59.492Z,11.70
2019-04-23T15:52:30.031Z,11.70
2019-04-23T15:57:45.036Z,11.70
2019-04-23T15:59:58.954Z,11.70
2019-04-23T16:02:03.438Z,11.70
2019-04-23T16:04:33.758Z,11.70
2019-04-23T16:07:04.551Z,11.80
2019-04-23T16:10:09.531Z,11.80
2019-04-23T16:12:35.092Z,11.70
2019-04-23T16:17:37.486Z,11.70
2019-04-23T16:22:44.468Z,11.70
2019-04-23T16:27:46.917Z,11.50
2019-04-23T16:30:19.099Z,11.50
2019-04-23T16:32:58.108Z,11.50
2019-04-23T16:38:01.644Z,11.40
2019-04-23T16:40:31.592Z,11.50
2019-04-23T16:43:05.122Z,11.50
2019-04-23T16:48:06.684Z,11.60
2019-04-23T16:53:11.213Z,11.70
2019-04-23T16:58:14.465Z,11.70
2019-04-23T17:03:28.975Z,11.70
2019-04-23T17:05:39.490Z,11.70
2019-04-23T17:08:36.000Z,11.70
2019-04-23T17:10:44.851Z,11.70
2019-04-23T17:13:16.271Z,11.70
2019-04-23T17:16:02.361Z,11.70
2019-04-23T17:20:52.006Z,11.60
2019-04-23T17:23:34.582Z,11.60
2019-04-23T17:25:59.306Z,11.60
2019-04-23T17:31:19.000Z,11.60
2019-04-23T17:33:35.352Z,11.60
2019-04-23T17:38:59.464Z,11.60
2019-04-23T17:41:33.147Z,11.60
2019-04-23T17:44:24.262Z,11.60
2019-04-23T17:46:38.591Z,11.60
2019-04-23T17:49:13.122Z,11.60
2019-04-23T17:51:36.053Z,11.60
2019-04-23T17:54:19.497Z,11.50
2019-04-23T17:59:20.628Z,11.50
2019-04-23T18:01:59.975Z,11.50
2019-04-23T18:06:58.402Z,11.50
2019-04-23T18:09:27.919Z,11.50
2019-04-23T18:12:05.312Z,11.50
2019-04-23T18:14:18.184Z,11.40
2019-04-23T18:17:03.586Z,11.50
2019-04-23T18:19:23.271Z,11.50
2019-04-23T18:24:59.391Z,11.30
2019-04-23T18:27:35.067Z,11.30
2019-04-23T18:30:09.949Z,11.30
2019-04-23T18:33:12.420Z,11.20
2019-04-23T18:35:29.927Z,11.20
2019-04-23T18:40:28.468Z,11.30
2019-04-23T18:45:46.665Z,11.30
2019-04-23T18:48:26.220Z,11.30
2019-04-23T18:50:55.233Z,11.30
2019-04-23T18:53:25.636Z,11.30
2019-04-23T18:58:21.965Z,11.40
2019-04-23T19:06:22.928Z,11.40
2019-04-23T19:12:03.441Z,11.40
2019-04-23T19:14:32.139Z,11.50
2019-04-23T19:19:29.565Z,11.50
2019-04-23T19:22:14.532Z,11.40
2019-04-23T19:24:31.428Z,11.40
2019-04-23T19:27:10.622Z,11.30
2019-04-23T19:37:02.670Z,11.30
2019-04-23T19:39:36.781Z,11.30
2019-04-23T19:42:11.913Z,11.30
2019-04-23T19:44:43.816Z,11.30
2019-04-23T19:52:18.950Z,11.40
2019-04-23T19:54:58.840Z,11.50
2019-04-23T19:59:52.574Z,11.50
2019-04-23T20:02:46.179Z,11.50
2019-04-23T20:09:51.767Z,11.50
2019-04-23T20:12:28.597Z,11.50
2019-04-23T20:14:56.447Z,11.40
2019-04-23T20:17:37.747Z,11.40
2019-04-23T20:20:19.370Z,11.40
2019-04-23T20:22:41.810Z,11.50
2019-04-23T20:25:29.704Z,11.50
2019-04-23T20:33:27.881Z,11.50
2019-04-23T20:35:38.271Z,11.50
2019-04-23T20:43:00.365Z,11.50
2019-04-23T20:45:39.579Z,11.50
2019-04-23T20:48:04.806Z,11.50
2019-04-23T20:50:34.180Z,11.50
2019-04-23T20:53:03.303Z,11.50
2019-04-23T20:55:52.899Z,11.40
2019-04-23T20:58:17.055Z,11.40
2019-04-23T21:06:08.694Z,11.50
2019-04-23T21:09:02.635Z,11.40
2019-04-23T21:11:16.499Z,11.50
2019-04-23T21:18:48.351Z,11.40
2019-04-23T21:21:27.753Z,11.40
2019-04-23T21:23:57.100Z,11.40
2019-04-23T21:26:20.188Z,11.40
2019-04-23T21:28:54.112Z,11.40
2019-04-23T21:31:30.643Z,11.40
2019-04-23T21:34:17.430Z,11.40
2019-04-23T21:36:37.642Z,11.40
2019-04-23T21:39:34.212Z,11.40
2019-04-23T21:42:15.982Z,11.30
2019-04-23T21:44:32.725Z,11.30
2019-04-23T21:47:25.774Z,11.30
2019-04-23T21:52:13.433Z,11.40
2019-04-23T21:54:42.894Z,11.50
2019-04-23T21:57:14.673Z,11.50
2019-04-23T21:59:50.448Z,11.60
2019-04-23T22:02:38.295Z,11.50
2019-04-23T22:04:52.095Z,11.50
2019-04-23T22:07:16.437Z,11.50
2019-04-23T22:12:28.241Z,11.40
2019-04-23T22:14:51.546Z,11.40
2019-04-23T22:17:24.869Z,11.40
2019-04-23T22:20:06.022Z,11.40
2019-04-23T22:22:44.203Z,11.40
2019-04-23T22:24:59.184Z,11.40
2019-04-23T22:27:35.466Z,11.30
2019-04-23T22:30:01.151Z,11.40
2019-04-23T22:32:47.410Z,11.40
2019-04-23T22:35:07.918Z,11.40
2019-04-23T22:37:46.252Z,11.40
2019-04-23T22:40:04.630Z,11.40
2019-04-23T22:45:26.568Z,11.40
2019-04-23T22:47:47.853Z,11.40
2019-04-23T22:50:11.217Z,11.40
2019-04-23T22:52:48.566Z,11.40
2019-04-23T22:55:12.775Z,11.50
2019-04-23T22:57:59.908Z,11.50
2019-04-23T23:02:59.002Z,11.40
2019-04-23T23:05:37.424Z,11.50
2019-04-23T23:08:07.879Z,11.50
2019-04-23T23:13:03.990Z,11.50
2019-04-23T23:15:42.031Z,11.50
2019-04-23T23:23:22.693Z,11.50
2019-04-23T23:25:46.076Z,11.50
2019-04-23T23:30:55.300Z,11.60
2019-04-23T23:33:20.278Z,11.50
2019-04-23T23:35:57.322Z,11.60
2019-04-23T23:38:28.907Z,11.50
2019-04-23T23:40:56.851Z,11.50
2019-04-23T23:43:25.807Z,11.50
2019-04-23T23:46:03.339Z,11.60
2019-04-23T23:48:31.348Z,11.60
2019-04-23T23:51:12.033Z,11.60
2019-04-23T23:58:40.754Z,11.60
